Time;durP1;ratioP1;P1;durP2;ratioP2;P2;SDS_P1;SDS_P2;PMS_P1;PMS_P2;Temp;Humidity;BMP_temperature;BMP_pressure;BME280_temperature;BME280_humidity;BME280_pressure;Samples;Min_cycle;Max_cycle;Signal;HPM_P1;HPM_P2
2020/12/09 07:56:07;;;;;;;2.75;2.55;;;17.40;65.80;;;;;;5093941;27;20365;-55
2020/12/09 07:58:32;;;;;;;4.32;2.90;;;17.40;65.90;;;;;;5065638;28;20044;-59
2020/12/09 08:00:58;;;;;;;2.78;2.45;;;17.50;66.00;;;;;;5096884;27;20090;-57
2020/12/09 08:03:28;;;;;;;3.08;2.67;;;17.60;65.60;;;;;;5092311;27;20550;-53
2020/12/09 08:05:54;;;;;;;2.75;2.55;;;17.60;65.60;;;;;;5110062;27;20043;-54
2020/12/09 08:08:20;;;;;;;3.10;2.83;;;17.60;65.20;;;;;;4729567;28;10000376;-53
2020/12/09 08:10:46;;;;;;;2.90;2.65;;;17.60;65.30;;;;;;5082866;27;20534;-54
2020/12/09 08:13:13;;;;;;;4.60;2.50;;;17.60;65.40;;;;;;5091336;27;20412;-53
2020/12/09 08:15:40;;;;;;;2.80;2.60;;;17.70;66.20;;;;;;5099330;27;20512;-60
2020/12/09 08:18:06;;;;;;;4.13;2.20;;;17.70;65.30;;;;;;5091552;27;20135;-54
2020/12/09 08:20:44;;;;;;;2.75;2.20;;;17.70;64.90;;;;;;5099656;28;20180;-53
2020/12/09 08:23:10;;;;;;;2.22;1.90;;;17.70;64.90;;;;;;5088475;27;20036;-53
2020/12/09 08:25:48;;;;;;;2.03;1.85;;;17.70;64.80;;;;;;5090261;28;20525;-55
2020/12/09 08:28:14;;;;;;;2.25;2.00;;;17.80;64.70;;;;;;5115429;27;20052;-52
2020/12/09 08:30:40;;;;;;;2.13;1.90;;;17.80;64.50;;;;;;5099472;28;20588;-49
2020/12/09 08:33:11;;;;;;;2.92;2.13;;;17.80;64.60;;;;;;5092199;28;20059;-57
2020/12/09 08:36:00;;;;;;;2.90;2.10;;;17.90;64.80;;;;;;5087534;27;20081;-55
2020/12/09 08:38:26;;;;;;;2.00;1.90;;;17.80;64.30;;;;;;5115763;27;20134;-57
2020/12/09 08:40:56;;;;;;;2.58;1.70;;;17.80;64.10;;;;;;5089987;27;20191;-56
2020/12/09 08:43:26;;;;;;;2.08;1.60;;;17.80;64.00;;;;;;5092182;28;20074;-62
2020/12/09 08:45:52;;;;;;;1.77;1.67;;;17.80;64.00;;;;;;5092082;28;20094;-54
2020/12/09 08:48:18;;;;;;;3.85;2.35;;;17.90;64.10;;;;;;5086973;27;20040;-54
2020/12/09 08:50:45;;;;;;;2.00;1.80;;;17.80;63.90;;;;;;5092693;27;20565;-56
2020/12/09 08:53:11;;;;;;;2.15;2.03;;;17.90;63.80;;;;;;5090125;28;20125;-56
2020/12/09 08:55:36;;;;;;;2.15;1.70;;;17.90;63.70;;;;;;5090881;27;20040;-55
2020/12/09 08:58:02;;;;;;;5.50;2.38;;;17.80;63.60;;;;;;5088750;27;20037;-55
2020/12/09 09:00:27;;;;;;;5.82;2.03;;;17.90;64.30;;;;;;5082445;27;20040;-58
2020/12/09 09:02:55;;;;;;;2.00;1.85;;;18.00;63.60;;;;;;5081537;27;20064;-54
2020/12/09 09:05:21;;;;;;;3.88;2.03;;;17.90;63.70;;;;;;5090325;27;20035;-54
2020/12/09 09:07:47;;;;;;;3.65;1.77;;;17.90;63.50;;;;;;5073923;28;20043;-56
2020/12/09 09:10:12;;;;;;;4.07;2.00;;;17.90;63.40;;;;;;5081074;27;20496;-54
2020/12/09 09:12:38;;;;;;;1.85;1.75;;;17.90;63.50;;;;;;5076567;28;20056;-57
2020/12/09 09:15:04;;;;;;;1.88;1.70;;;18.00;63.60;;;;;;5077503;28;20072;-54
2020/12/09 09:17:30;;;;;;;2.35;1.75;;;18.00;63.50;;;;;;5066848;28;20048;-54
2020/12/09 09:19:57;;;;;;;4.80;1.95;;;18.00;63.60;;;;;;5075403;28;20124;-55
2020/12/09 09:22:23;;;;;;;2.95;2.08;;;18.00;63.70;;;;;;5069152;28;20040;-54
2020/12/09 09:24:48;;;;;;;1.90;1.80;;;18.00;63.80;;;;;;5075244;28;20518;-54
2020/12/09 09:27:14;;;;;;;1.80;1.70;;;18.00;63.80;;;;;;5077388;28;20135;-58
2020/12/09 09:29:39;;;;;;;1.45;1.35;;;18.00;63.90;;;;;;5077072;28;20040;-56
2020/12/09 09:32:05;;;;;;;1.70;1.60;;;18.00;63.90;;;;;;5074296;28;20066;-54
2020/12/09 09:34:32;;;;;;;1.60;1.50;;;18.00;63.90;;;;;;5072020;28;20588;-57
2020/12/09 09:36:58;;;;;;;1.75;1.60;;;18.10;63.70;;;;;;5084689;28;20040;-56
2020/12/09 09:39:23;;;;;;;3.55;1.50;;;18.00;63.70;;;;;;5080685;28;20043;-54
2020/12/09 09:41:49;;;;;;;1.80;1.70;;;18.00;63.60;;;;;;5063608;28;20040;-51
2020/12/09 09:44:14;;;;;;;1.50;1.40;;;18.00;63.50;;;;;;5065618;28;20496;-52
2020/12/09 09:46:40;;;;;;;1.65;1.55;;;18.00;63.60;;;;;;5070013;28;20106;-53
2020/12/09 09:49:05;;;;;;;2.05;1.40;;;18.00;63.50;;;;;;5065814;28;20055;-54
2020/12/09 09:51:31;;;;;;;1.50;1.40;;;18.10;63.40;;;;;;5066877;28;20799;-55
2020/12/09 09:53:57;;;;;;;1.88;1.67;;;18.10;63.40;;;;;;5076013;28;20041;-55
2020/12/09 09:56:22;;;;;;;1.40;1.30;;;18.10;63.40;;;;;;5022585;28;20041;-53
2020/12/09 09:58:48;;;;;;;1.50;1.40;;;18.10;63.40;;;;;;5046697;28;20523;-55
2020/12/09 10:01:16;;;;;;;1.10;1.10;;;18.10;63.30;;;;;;5039133;28;20038;-55
2020/12/09 10:03:42;;;;;;;3.55;1.50;;;18.10;63.30;;;;;;5035024;28;20056;-55
2020/12/09 10:06:08;;;;;;;1.55;1.25;;;18.10;63.30;;;;;;5036858;28;20045;-54
2020/12/09 10:08:33;;;;;;;1.40;1.30;;;18.10;62.90;;;;;;5048302;28;20080;-56
2020/12/09 10:11:03;;;;;;;1.17;1.08;;;18.10;63.00;;;;;;5029626;28;20053;-54
2020/12/09 10:13:29;;;;;;;1.50;1.40;;;18.10;62.90;;;;;;5039000;28;20048;-56
2020/12/09 10:15:55;;;;;;;1.50;1.40;;;18.10;63.00;;;;;;5040594;28;20071;-56
2020/12/09 10:18:20;;;;;;;1.50;1.40;;;18.10;62.90;;;;;;5047031;28;20049;-55
2020/12/09 10:20:46;;;;;;;1.48;1.38;;;18.10;62.90;;;;;;5049892;28;20048;-50
2020/12/09 10:23:11;;;;;;;1.30;1.20;;;18.10;62.80;;;;;;5042013;28;20040;-55
2020/12/09 10:25:37;;;;;;;3.78;1.30;;;18.20;62.90;;;;;;5056945;28;20554;-54
2020/12/09 10:28:02;;;;;;;2.20;1.50;;;18.10;62.90;;;;;;5038846;28;20040;-56
2020/12/09 10:30:28;;;;;;;1.42;1.33;;;18.20;62.60;;;;;;5026740;28;20037;-54
2020/12/09 10:32:54;;;;;;;3.63;1.35;;;18.20;62.80;;;;;;5040663;28;20071;-57
2020/12/09 10:35:19;;;;;;;2.00;1.40;;;18.20;62.80;;;;;;5046938;28;20053;-57
2020/12/09 10:37:45;;;;;;;1.52;1.38;;;18.20;62.50;;;;;;5048430;28;20135;-54
2020/12/09 10:40:10;;;;;;;3.30;1.27;;;18.20;62.70;;;;;;5048271;28;20037;-56
2020/12/09 10:42:36;;;;;;;1.27;1.17;;;18.30;62.40;;;;;;5047627;28;20568;-53
2020/12/09 10:45:01;;;;;;;1.55;1.45;;;18.30;62.20;;;;;;5041192;28;20045;-53
2020/12/09 10:47:27;;;;;;;2.17;1.50;;;18.20;62.50;;;;;;5036616;28;20033;-58
2020/12/09 10:49:53;;;;;;;1.55;1.45;;;18.20;62.50;;;;;;5031056;28;20117;-55
2020/12/09 10:52:18;;;;;;;4.55;1.52;;;18.20;62.50;;;;;;5035903;28;20041;-57
2020/12/09 10:54:44;;;;;;;1.50;1.10;;;18.20;62.50;;;;;;5049937;28;20420;-56
2020/12/09 10:57:09;;;;;;;3.92;1.10;;;18.20;62.30;;;;;;5077162;28;20062;-53
2020/12/09 10:59:35;;;;;;;1.33;1.13;;;18.20;62.40;;;;;;5072521;28;20059;-53
2020/12/09 11:02:00;;;;;;;1.52;1.13;;;18.20;62.40;;;;;;5078767;28;20059;-54
2020/12/09 11:04:26;;;;;;;2.28;1.35;;;18.30;62.40;;;;;;5068373;28;20040;-53
2020/12/09 11:06:52;;;;;;;1.52;1.40;;;18.30;63.10;;;;;;5069686;28;20032;-54
2020/12/09 11:09:17;;;;;;;1.15;1.05;;;18.30;62.80;;;;;;5066964;28;20033;-51
2020/12/09 11:11:46;;;;;;;2.22;1.33;;;18.30;62.20;;;;;;5079090;28;20044;-55
2020/12/09 11:14:15;;;;;;;1.42;1.23;;;18.30;61.90;;;;;;5069130;28;20377;-55
2020/12/09 11:16:41;;;;;;;1.50;1.40;;;18.20;62.10;;;;;;5062833;28;20479;-55
2020/12/09 11:19:07;;;;;;;1.27;1.17;;;18.20;62.10;;;;;;4694450;28;10000584;-56
2020/12/09 11:21:33;;;;;;;1.45;1.35;;;18.20;62.80;;;;;;5061504;28;20132;-54
2020/12/09 11:24:01;;;;;;;2.15;1.00;;;18.20;62.10;;;;;;5066407;28;20136;-53
2020/12/09 11:26:27;;;;;;;1.80;1.10;;;18.20;62.10;;;;;;5073783;28;20106;-54
2020/12/09 11:28:53;;;;;;;0.95;0.95;;;18.20;61.70;;;;;;5077289;28;20504;-55
2020/12/09 11:31:22;;;;;;;1.30;1.20;;;18.20;61.80;;;;;;5060092;28;20051;-53
2020/12/09 11:33:48;;;;;;;2.65;2.28;;;18.20;61.90;;;;;;5084168;28;20047;-54
2020/12/09 11:36:14;;;;;;;4.05;2.80;;;18.20;62.00;;;;;;5085828;28;20044;-53
2020/12/09 11:38:40;;;;;;;5.22;2.92;;;18.20;61.90;;;;;;5085093;28;20040;-57
2020/12/09 11:41:05;;;;;;;5.45;2.88;;;18.20;62.10;;;;;;5077601;28;20439;-53
2020/12/09 11:43:31;;;;;;;4.45;2.80;;;18.20;61.90;;;;;;5080344;28;20437;-53
2020/12/09 11:45:57;;;;;;;3.75;2.55;;;18.20;63.20;;;;;;5083040;28;20055;-53
2020/12/09 11:48:23;;;;;;;3.42;2.35;;;18.20;62.70;;;;;;5083343;28;20051;-52
2020/12/09 11:50:49;;;;;;;3.92;2.25;;;18.20;64.20;;;;;;5084228;28;20138;-52
2020/12/09 11:53:15;;;;;;;3.10;2.60;;;18.20;63.10;;;;;;5080283;28;20047;-54
2020/12/09 11:55:41;;;;;;;3.08;2.25;;;18.20;64.20;;;;;;5061574;28;20049;-53
2020/12/09 11:58:06;;;;;;;2.00;1.80;;;18.20;65.30;;;;;;5063629;28;20044;-52
2020/12/09 12:00:32;;;;;;;3.33;2.28;;;18.20;63.70;;;;;;5063026;28;20419;-52
2020/12/09 12:02:58;;;;;;;4.05;1.90;;;18.30;63.40;;;;;;5067822;28;20111;-50
2020/12/09 12:05:25;;;;;;;4.22;1.95;;;18.30;63.20;;;;;;5067895;28;20102;-52
2020/12/09 12:07:51;;;;;;;4.28;1.95;;;18.40;62.60;;;;;;5068392;28;20513;-50
2020/12/09 12:10:16;;;;;;;2.67;1.60;;;18.30;62.20;;;;;;5067667;28;20090;-51
2020/12/09 12:12:42;;;;;;;4.80;1.88;;;18.30;62.30;;;;;;5062100;28;20090;-54
2020/12/09 12:15:08;;;;;;;8.02;2.33;;;18.30;62.20;;;;;;5065338;28;20052;-53
2020/12/09 12:17:33;;;;;;;4.43;1.75;;;18.30;62.30;;;;;;5064327;28;20033;-52
2020/12/09 12:19:59;;;;;;;4.25;1.60;;;18.30;62.20;;;;;;5067341;28;20044;-48
2020/12/09 12:22:24;;;;;;;3.10;1.60;;;18.30;62.10;;;;;;5061456;28;20044;-50
2020/12/09 12:24:50;;;;;;;4.78;1.75;;;18.30;62.10;;;;;;5062684;28;20041;-52
2020/12/09 12:27:16;;;;;;;4.57;1.63;;;18.30;62.10;;;;;;5065595;28;20412;-50
2020/12/09 12:29:41;;;;;;;1.73;1.55;;;18.40;62.20;;;;;;5063355;28;20056;-54
2020/12/09 12:32:07;;;;;;;2.15;1.35;;;18.30;62.10;;;;;;5066816;28;20078;-56
2020/12/09 12:34:35;;;;;;;1.83;1.40;;;18.30;62.00;;;;;;5062969;28;20048;-52
2020/12/09 12:37:01;;;;;;;2.50;1.98;;;18.40;62.00;;;;;;5062807;28;20079;-51
2020/12/09 12:39:26;;;;;;;3.28;1.48;;;18.40;62.00;;;;;;5066121;28;20052;-51
2020/12/09 12:41:52;;;;;;;1.45;1.30;;;18.40;61.90;;;;;;5069200;28;20478;-54
2020/12/09 12:44:18;;;;;;;2.08;1.45;;;18.40;61.80;;;;;;5068902;28;20128;-55
2020/12/09 12:46:48;;;;;;;1.30;1.20;;;18.40;61.80;;;;;;5061324;28;20056;-54
2020/12/09 12:49:14;;;;;;;2.08;1.42;;;18.50;61.80;;;;;;5060341;28;20499;-54
2020/12/09 12:51:40;;;;;;;5.85;1.92;;;18.50;61.80;;;;;;5099854;28;20128;-52
2020/12/09 12:54:06;;;;;;;1.73;1.38;;;18.40;61.70;;;;;;5069480;28;20115;-48
2020/12/09 12:56:34;;;;;;;5.63;2.10;;;18.40;61.90;;;;;;5060997;28;20051;-55
2020/12/09 12:58:59;;;;;;;3.70;1.40;;;18.50;62.10;;;;;;5060899;28;20060;-53
2020/12/09 13:01:25;;;;;;;6.35;2.10;;;18.50;62.00;;;;;;5059297;28;20454;-53
2020/12/09 13:03:50;;;;;;;2.72;1.30;;;18.60;62.10;;;;;;5071742;28;20518;-54
2020/12/09 13:06:16;;;;;;;3.65;1.30;;;18.60;62.10;;;;;;5066860;28;20098;-52
2020/12/09 13:08:42;;;;;;;2.25;1.17;;;18.50;62.10;;;;;;5068933;28;20036;-56
2020/12/09 13:11:08;;;;;;;1.58;1.30;;;18.60;62.30;;;;;;5068149;28;20072;-55
2020/12/09 13:13:34;;;;;;;6.38;1.30;;;18.60;62.30;;;;;;5064976;28;20036;-51
2020/12/09 13:16:00;;;;;;;3.63;1.33;;;18.50;62.60;;;;;;5064569;28;20580;-52
2020/12/09 13:18:26;;;;;;;2.55;1.20;;;18.60;62.50;;;;;;5068918;28;20114;-54
2020/12/09 13:20:52;;;;;;;4.50;1.50;;;18.50;62.30;;;;;;5069580;28;20040;-53
2020/12/09 13:23:18;;;;;;;3.30;1.25;;;18.60;62.30;;;;;;5069122;28;20044;-57
2020/12/09 13:25:44;;;;;;;2.45;1.17;;;18.60;62.60;;;;;;5065653;28;20063;-55
2020/12/09 13:28:09;;;;;;;1.15;1.00;;;18.60;62.50;;;;;;5068807;28;20240;-56
2020/12/09 13:30:35;;;;;;;4.30;1.35;;;18.60;62.60;;;;;;5067193;28;20427;-55
2020/12/09 13:33:01;;;;;;;5.50;1.40;;;18.60;62.70;;;;;;5066488;28;20044;-56
2020/12/09 13:35:27;;;;;;;3.42;1.40;;;18.60;62.60;;;;;;5069295;28;20075;-51
2020/12/09 13:37:53;;;;;;;3.22;1.27;;;18.60;62.50;;;;;;5067634;28;20475;-53
2020/12/09 13:40:19;;;;;;;3.63;1.27;;;18.60;62.60;;;;;;5069727;28;20400;-55
2020/12/09 13:42:44;;;;;;;2.67;1.40;;;18.60;62.50;;;;;;5066913;28;20102;-56
2020/12/09 13:45:10;;;;;;;1.98;1.33;;;18.70;62.60;;;;;;5068293;28;20048;-53
2020/12/09 13:47:36;;;;;;;3.22;1.50;;;18.60;62.60;;;;;;5067135;28;20086;-55
2020/12/09 13:50:07;;;;;;;1.48;1.38;;;18.60;62.50;;;;;;5061493;28;20045;-55
2020/12/09 13:52:34;;;;;;;2.40;1.50;;;18.60;62.70;;;;;;5066723;28;20045;-55
2020/12/09 13:54:59;;;;;;;3.67;1.85;;;18.60;62.50;;;;;;5068268;28;20052;-53
2020/12/09 13:57:25;;;;;;;15.23;9.20;;;18.60;62.60;;;;;;5069343;28;20089;-53
2020/12/09 13:59:51;;;;;;;17.83;11.00;;;18.60;62.40;;;;;;5068174;28;20484;-54
2020/12/09 14:02:18;;;;;;;15.15;12.05;;;18.60;63.00;;;;;;5069393;28;20416;-54
2020/12/09 14:04:44;;;;;;;21.70;14.80;;;18.60;62.60;;;;;;5065400;28;20102;-54
2020/12/09 14:07:09;;;;;;;22.55;15.15;;;18.60;62.50;;;;;;5067805;28;20036;-56
2020/12/09 14:09:35;;;;;;;22.25;13.88;;;18.60;62.50;;;;;;5068293;28;20040;-55
2020/12/09 14:12:00;;;;;;;22.27;13.70;;;18.60;62.40;;;;;;5069049;28;20082;-57
2020/12/09 14:14:26;;;;;;;15.50;11.70;;;18.60;62.50;;;;;;5069604;28;20044;-55
2020/12/09 14:16:51;;;;;;;19.10;13.68;;;18.70;62.60;;;;;;5069549;28;20040;-54
2020/12/09 14:19:20;;;;;;;17.95;11.80;;;18.70;62.30;;;;;;5067472;28;20047;-54
2020/12/09 14:21:46;;;;;;;17.20;11.07;;;18.70;62.40;;;;;;5068090;28;20160;-57
2020/12/09 14:24:13;;;;;;;18.60;12.30;;;18.70;62.60;;;;;;5067127;28;20139;-56
2020/12/09 14:26:39;;;;;;;15.80;10.65;;;18.70;62.80;;;;;;5067369;28;20040;-54
2020/12/09 14:29:04;;;;;;;15.90;10.32;;;18.70;62.60;;;;;;5069138;28;20044;-54
2020/12/09 14:31:30;;;;;;;14.65;9.20;;;18.70;62.60;;;;;;5066184;28;20721;-57
2020/12/09 14:33:56;;;;;;;15.48;10.07;;;18.60;62.50;;;;;;5066577;28;20051;-54
2020/12/09 14:36:21;;;;;;;14.32;10.13;;;18.60;62.60;;;;;;5068628;28;20044;-52
2020/12/09 14:38:47;;;;;;;10.75;9.02;;;18.60;62.50;;;;;;5067956;28;20064;-54
2020/12/09 14:41:13;;;;;;;11.27;8.77;;;18.70;62.50;;;;;;5069029;28;20044;-54
2020/12/09 14:43:50;;;;;;;11.48;9.15;;;18.70;62.50;;;;;;5066886;28;20041;-55
2020/12/09 14:46:16;;;;;;;12.13;8.75;;;18.70;62.40;;;;;;5067651;28;20048;-53
2020/12/09 14:48:42;;;;;;;11.25;8.57;;;18.70;62.30;;;;;;5067101;28;20415;-56
2020/12/09 14:51:11;;;;;;;10.95;8.10;;;18.70;62.60;;;;;;5067317;28;20488;-52
2020/12/09 14:53:41;;;;;;;11.95;8.93;;;18.70;62.40;;;;;;5065358;28;20127;-55
2020/12/09 14:56:11;;;;;;;9.85;7.93;;;18.70;62.40;;;;;;5068255;28;20131;-54
2020/12/09 14:58:37;;;;;;;17.33;8.10;;;18.70;62.50;;;;;;5067279;28;20036;-50
2020/12/09 15:01:03;;;;;;;9.98;8.18;;;18.80;62.50;;;;;;5065010;28;21897;-54
2020/12/09 15:03:28;;;;;;;12.15;8.77;;;18.70;62.40;;;;;;5061066;28;20041;-55
2020/12/09 15:05:54;;;;;;;12.90;7.57;;;18.80;62.10;;;;;;5064392;28;20466;-53
2020/12/09 15:08:19;;;;;;;9.18;7.55;;;18.70;62.20;;;;;;5066541;28;20043;-56
2020/12/09 15:10:45;;;;;;;10.68;7.10;;;18.70;62.30;;;;;;5055556;28;20090;-46
2020/12/09 15:13:11;;;;;;;12.38;8.52;;;18.80;62.10;;;;;;5065394;28;20392;-54
2020/12/09 15:15:37;;;;;;;14.73;7.80;;;18.80;62.10;;;;;;5065587;28;20045;-53
2020/12/09 15:18:03;;;;;;;14.50;7.13;;;18.80;62.60;;;;;;5066093;28;20040;-54
2020/12/09 15:20:28;;;;;;;10.00;7.28;;;18.80;62.10;;;;;;5065281;28;20466;-49
2020/12/09 15:22:54;;;;;;;9.60;6.45;;;18.80;62.20;;;;;;5065509;28;20059;-52
2020/12/09 15:25:19;;;;;;;8.18;6.10;;;18.80;62.30;;;;;;5066202;28;20503;-53
2020/12/09 15:27:45;;;;;;;8.48;5.72;;;18.80;62.40;;;;;;5065352;28;20044;-53
2020/12/09 15:30:10;;;;;;;6.30;5.70;;;18.80;62.40;;;;;;5081329;28;20040;-49
2020/12/09 15:32:36;;;;;;;8.75;6.05;;;18.80;63.20;;;;;;5064431;28;20036;-49
2020/12/09 15:35:02;;;;;;;6.72;5.60;;;18.80;62.50;;;;;;5065330;28;20483;-50
2020/12/09 15:37:33;;;;;;;6.45;5.28;;;18.80;62.30;;;;;;5066939;28;20562;-47
2020/12/09 15:40:00;;;;;;;5.55;5.03;;;18.90;62.50;;;;;;5047145;28;20075;-52
2020/12/09 15:42:26;;;;;;;7.88;5.93;;;18.80;62.30;;;;;;5063789;28;20032;-53
2020/12/09 15:44:52;;;;;;;6.22;5.13;;;18.80;62.30;;;;;;5065779;28;20051;-53
2020/12/09 15:47:17;;;;;;;6.43;4.93;;;18.90;63.30;;;;;;5066474;28;20632;-53
2020/12/09 15:49:43;;;;;;;8.18;5.50;;;18.90;62.30;;;;;;5064706;28;20048;-54
2020/12/09 15:52:09;;;;;;;8.27;4.88;;;18.90;62.30;;;;;;5065311;28;20040;-51
2020/12/09 15:54:35;;;;;;;8.80;5.10;;;18.90;62.40;;;;;;5064269;28;20040;-53
2020/12/09 15:57:00;;;;;;;8.43;4.80;;;18.90;62.20;;;;;;5065657;28;20129;-51
2020/12/09 15:59:26;;;;;;;7.57;5.38;;;18.90;62.00;;;;;;5066933;28;20072;-51
2020/12/09 16:01:51;;;;;;;5.03;4.55;;;18.90;62.20;;;;;;5063237;28;20048;-48
2020/12/09 16:04:17;;;;;;;5.53;5.03;;;18.80;62.30;;;;;;5065775;28;20138;-50
2020/12/09 16:06:45;;;;;;;5.25;4.75;;;18.90;62.30;;;;;;5064677;28;20048;-49
2020/12/09 16:09:11;;;;;;;4.30;4.00;;;18.90;62.20;;;;;;5065434;28;20165;-48
2020/12/09 16:11:37;;;;;;;4.55;4.18;;;18.90;62.30;;;;;;5066220;28;20139;-50
2020/12/09 16:14:03;;;;;;;6.05;5.07;;;18.90;62.10;;;;;;5065171;28;20045;-48
2020/12/09 16:16:29;;;;;;;4.50;4.10;;;18.90;62.00;;;;;;5067446;28;20056;-52
2020/12/09 16:18:55;;;;;;;4.85;4.45;;;18.90;62.00;;;;;;5067824;28;20049;-48
2020/12/09 16:21:20;;;;;;;5.50;4.20;;;18.90;62.20;;;;;;5066520;28;20041;-49
2020/12/09 16:23:46;;;;;;;4.70;3.95;;;18.80;62.10;;;;;;5068776;28;20154;-53
2020/12/09 16:26:12;;;;;;;6.78;4.25;;;18.90;62.10;;;;;;5067936;28;20515;-49
2020/12/09 16:28:37;;;;;;;5.10;3.90;;;18.90;62.10;;;;;;5065785;28;20123;-49
2020/12/09 16:31:03;;;;;;;6.05;4.00;;;18.90;62.10;;;;;;5069353;28;20048;-49
2020/12/09 16:33:29;;;;;;;4.30;4.00;;;18.90;61.90;;;;;;5069507;28;20044;-47
2020/12/09 16:35:56;;;;;;;4.30;3.90;;;18.90;61.90;;;;;;5068429;28;20053;-47
2020/12/09 16:38:21;;;;;;;4.22;3.65;;;18.90;62.00;;;;;;5070724;28;20041;-49
2020/12/09 16:40:47;;;;;;;4.45;4.07;;;18.90;62.00;;;;;;5066323;28;20487;-51
2020/12/09 16:43:12;;;;;;;6.10;3.83;;;18.90;62.00;;;;;;5068612;28;20036;-48
2020/12/09 16:45:38;;;;;;;4.07;3.75;;;18.90;62.00;;;;;;5068288;28;20529;-50
2020/12/09 16:48:03;;;;;;;4.63;4.18;;;18.80;61.90;;;;;;5068788;28;20040;-46
2020/12/09 16:50:29;;;;;;;4.07;3.72;;;18.80;61.90;;;;;;5068190;28;20048;-48
2020/12/09 16:52:54;;;;;;;4.55;4.00;;;18.80;62.00;;;;;;5067988;28;20028;-49
2020/12/09 16:55:20;;;;;;;4.43;3.53;;;18.80;62.00;;;;;;5074485;28;20050;-51
2020/12/09 16:57:46;;;;;;;3.72;3.50;;;18.80;61.90;;;;;;5085802;28;20032;-50
2020/12/09 17:00:12;;;;;;;3.15;2.92;;;18.80;62.00;;;;;;5089286;28;20067;-52
2020/12/09 17:02:37;;;;;;;4.30;3.90;;;18.80;61.80;;;;;;5071226;28;20036;-55
2020/12/09 17:05:03;;;;;;;3.55;3.20;;;18.90;61.90;;;;;;5089372;28;20056;-53
2020/12/09 17:07:29;;;;;;;4.68;3.80;;;18.90;61.60;;;;;;5088416;28;20044;-53
2020/12/09 17:09:54;;;;;;;4.03;3.75;;;18.80;61.70;;;;;;5088594;28;20093;-52
2020/12/09 17:12:20;;;;;;;4.07;3.25;;;18.80;61.70;;;;;;5089666;28;20411;-52
2020/12/09 17:14:46;;;;;;;3.67;3.33;;;18.80;61.70;;;;;;5088086;28;20104;-53
2020/12/09 17:17:11;;;;;;;3.97;3.30;;;18.80;61.60;;;;;;5087774;28;20051;-53
2020/12/09 17:19:37;;;;;;;4.60;3.03;;;18.70;61.50;;;;;;5090721;28;20040;-52
2020/12/09 17:22:03;;;;;;;4.23;3.43;;;18.70;61.70;;;;;;4717781;27;10000701;-54
2020/12/09 17:24:28;;;;;;;3.88;3.30;;;18.70;61.70;;;;;;5072067;28;20298;-50
2020/12/09 17:26:54;;;;;;;3.53;3.30;;;18.70;61.70;;;;;;5084487;28;20094;-52
2020/12/09 17:29:20;;;;;;;3.17;2.97;;;18.70;61.70;;;;;;5085478;28;20136;-50
2020/12/09 17:31:46;;;;;;;4.13;3.63;;;18.70;61.70;;;;;;5085299;28;20043;-50
2020/12/09 17:34:12;;;;;;;3.30;3.00;;;18.70;61.70;;;;;;5083823;28;20055;-51
2020/12/09 17:36:38;;;;;;;8.18;3.00;;;18.70;61.70;;;;;;5067898;28;20043;-54
2020/12/09 17:39:05;;;;;;;7.15;3.28;;;18.60;61.70;;;;;;5084354;27;20100;-51
2020/12/09 17:41:30;;;;;;;3.45;2.97;;;18.60;61.80;;;;;;5085486;27;20032;-53
2020/12/09 17:43:56;;;;;;;3.00;2.80;;;18.60;61.80;;;;;;5084823;27;20108;-52
2020/12/09 17:46:21;;;;;;;3.08;2.75;;;18.60;61.70;;;;;;5085993;28;20464;-52
2020/12/09 17:48:47;;;;;;;5.13;3.38;;;18.70;61.80;;;;;;5084167;28;20040;-52
2020/12/09 17:51:13;;;;;;;3.08;2.75;;;18.60;61.70;;;;;;5085556;28;20055;-51
2020/12/09 17:53:39;;;;;;;15.15;2.85;;;18.60;61.80;;;;;;5086921;28;20127;-53
2020/12/09 17:56:05;;;;;;;3.63;3.33;;;18.60;61.80;;;;;;5085100;28;20101;-53
2020/12/09 17:58:30;;;;;;;4.32;2.88;;;18.60;61.90;;;;;;5084173;28;20063;-50
2020/12/09 18:00:56;;;;;;;3.60;3.13;;;18.60;61.90;;;;;;5083806;27;20139;-49
2020/12/09 18:03:21;;;;;;;7.20;3.25;;;18.50;62.40;;;;;;5084523;27;20096;-50
2020/12/09 18:05:47;;;;;;;4.30;2.97;;;18.50;62.80;;;;;;5084741;27;20028;-52
2020/12/09 18:08:14;;;;;;;4.68;3.10;;;18.50;62.80;;;;;;5084516;27;20464;-54
2020/12/09 18:10:40;;;;;;;4.60;3.15;;;18.50;62.70;;;;;;5083673;27;20047;-53
2020/12/09 18:13:06;;;;;;;3.90;3.40;;;18.50;63.40;;;;;;5079312;27;20798;-49
2020/12/09 18:15:31;;;;;;;4.65;2.70;;;18.50;62.90;;;;;;5085059;27;20081;-54
2020/12/09 18:17:57;;;;;;;4.47;3.38;;;18.50;62.70;;;;;;5085196;27;20047;-54
2020/12/09 18:20:23;;;;;;;4.00;3.58;;;18.50;62.70;;;;;;5088543;27;20502;-53
2020/12/09 18:22:50;;;;;;;3.72;2.92;;;18.50;62.60;;;;;;5085302;28;20052;-54
2020/12/09 18:25:16;;;;;;;4.93;3.13;;;18.50;62.20;;;;;;5088971;27;20123;-54
2020/12/09 18:27:41;;;;;;;6.18;4.85;;;18.50;62.40;;;;;;5085532;27;20044;-52
2020/12/09 18:30:07;;;;;;;8.63;7.28;;;18.40;62.00;;;;;;5087311;27;20445;-54
2020/12/09 18:32:32;;;;;;;10.38;8.20;;;18.40;62.00;;;;;;5086927;28;20055;-53
2020/12/09 18:34:58;;;;;;;9.07;8.02;;;18.40;62.00;;;;;;5084953;27;20470;-53
2020/12/09 18:37:25;;;;;;;10.40;8.48;;;18.40;62.00;;;;;;5084376;27;20513;-56
2020/12/09 18:39:51;;;;;;;15.93;9.75;;;18.40;62.10;;;;;;5084615;28;20104;-53
2020/12/09 18:42:17;;;;;;;11.13;8.68;;;18.40;62.20;;;;;;5085715;28;20115;-54
2020/12/09 18:44:43;;;;;;;13.20;10.15;;;18.40;62.00;;;;;;5083929;27;20046;-53
2020/12/09 18:47:12;;;;;;;10.57;9.20;;;18.40;62.30;;;;;;5083351;28;20797;-53
2020/12/09 18:49:38;;;;;;;11.23;8.52;;;18.40;62.30;;;;;;5080232;28;20537;-54
2020/12/09 18:52:03;;;;;;;11.40;9.95;;;18.40;62.40;;;;;;5081309;28;20048;-54
2020/12/09 18:54:29;;;;;;;10.98;9.43;;;18.40;62.50;;;;;;5083096;27;20488;-54
2020/12/09 18:56:57;;;;;;;11.68;8.93;;;18.40;62.70;;;;;;5084034;28;20051;-49
2020/12/09 18:59:23;;;;;;;14.32;8.73;;;18.40;62.80;;;;;;5068498;28;20047;-52
2020/12/09 19:01:48;;;;;;;11.52;10.20;;;18.40;63.40;;;;;;5086176;27;20052;-52
2020/12/09 19:04:14;;;;;;;13.27;10.45;;;18.40;63.00;;;;;;5087133;28;20054;-53
2020/12/09 19:06:39;;;;;;;10.10;8.93;;;18.40;63.40;;;;;;5086697;28;20108;-52
2020/12/09 19:09:05;;;;;;;13.75;9.25;;;18.50;63.80;;;;;;5086649;27;20118;-54
2020/12/09 19:11:31;;;;;;;13.02;11.40;;;18.50;63.50;;;;;;5088321;27;20092;-52
2020/12/09 19:13:57;;;;;;;12.88;10.43;;;18.40;63.40;;;;;;5084344;27;20055;-54
2020/12/09 19:16:24;;;;;;;12.05;10.30;;;18.50;63.40;;;;;;5087277;28;20549;-50
2020/12/09 19:18:50;;;;;;;16.55;12.15;;;18.50;63.40;;;;;;5088102;27;20498;-51
2020/12/09 19:21:18;;;;;;;12.50;10.75;;;18.50;63.60;;;;;;5086427;27;20062;-51
2020/12/09 19:23:51;;;;;;;17.87;11.64;;;18.60;63.50;;;;;;4988823;27;10000627;-53
2020/12/09 19:26:21;;;;;;;16.08;10.18;;;18.50;63.40;;;;;;5053470;28;20252;-53
2020/12/09 19:28:47;;;;;;;13.55;10.68;;;18.60;63.80;;;;;;5063552;28;20037;-49
2020/12/09 19:31:12;;;;;;;14.88;11.30;;;18.60;63.50;;;;;;5070274;28;20114;-50
2020/12/09 19:33:38;;;;;;;15.65;9.85;;;18.60;63.60;;;;;;5068953;28;20126;-52
2020/12/09 19:36:04;;;;;;;14.88;9.90;;;18.60;63.40;;;;;;5071445;28;20505;-53
2020/12/09 19:38:29;;;;;;;13.93;9.68;;;18.60;63.50;;;;;;5061514;28;20053;-52
2020/12/09 19:40:55;;;;;;;11.15;9.05;;;18.60;63.30;;;;;;5061457;28;20239;-52
2020/12/09 19:43:20;;;;;;;17.38;9.07;;;18.70;63.30;;;;;;5060218;28;20511;-52
2020/12/09 19:45:46;;;;;;;13.02;9.70;;;18.70;63.30;;;;;;5069760;28;20423;-52
2020/12/09 19:48:12;;;;;;;12.93;9.30;;;18.70;63.20;;;;;;5061305;28;20098;-53
2020/12/09 19:50:37;;;;;;;12.88;9.60;;;18.80;63.50;;;;;;5079194;28;20468;-52
2020/12/09 19:53:03;;;;;;;17.67;9.70;;;18.80;63.70;;;;;;5080334;28;20048;-47
2020/12/09 19:55:29;;;;;;;17.58;9.02;;;18.80;64.10;;;;;;5076722;28;20059;-55
2020/12/09 19:57:54;;;;;;;11.07;9.15;;;18.90;63.90;;;;;;5084224;28;20120;-52
2020/12/09 20:00:20;;;;;;;10.98;8.80;;;18.90;63.80;;;;;;5081705;28;20067;-54
2020/12/09 20:02:45;;;;;;;15.20;10.00;;;18.90;63.50;;;;;;5084457;28;20046;-54
2020/12/09 20:05:11;;;;;;;11.02;8.75;;;18.90;63.30;;;;;;5082154;28;20048;-56
2020/12/09 20:07:37;;;;;;;12.32;9.23;;;19.00;63.10;;;;;;5079363;28;20144;-56
2020/12/09 20:10:03;;;;;;;13.57;8.38;;;18.90;62.90;;;;;;5082710;27;20754;-55
2020/12/09 20:12:29;;;;;;;9.23;8.00;;;18.90;62.90;;;;;;5082767;28;20117;-49
2020/12/09 20:14:54;;;;;;;13.48;8.48;;;18.90;63.00;;;;;;5065123;28;20506;-48
2020/12/09 20:17:21;;;;;;;10.55;7.40;;;19.00;62.90;;;;;;5084199;28;20040;-51
2020/12/09 20:19:47;;;;;;;8.45;7.25;;;19.00;62.90;;;;;;5078865;28;20056;-48
2020/12/09 20:22:15;;;;;;;12.05;8.68;;;18.90;62.90;;;;;;5081343;28;20077;-50
2020/12/09 20:24:40;;;;;;;10.02;8.70;;;19.00;62.80;;;;;;5083449;28;20092;-50
2020/12/09 20:27:08;;;;;;;12.70;10.48;;;19.00;62.80;;;;;;5081150;28;20040;-53
2020/12/09 20:29:34;;;;;;;19.67;13.35;;;19.00;62.50;;;;;;5064453;28;20052;-51
2020/12/09 20:31:59;;;;;;;22.85;14.57;;;19.10;62.80;;;;;;5080996;27;20055;-54